Terminal Aerodrome Forecast
Issued by NWS North Platte, NE

Home | Current Version | Previous Version | Text Only | Print | Product List | Glossary On
Versions: 1 2 3 4 5 6 7 8 9 10 11 12 13 14 15 16 17 18 19 20 21 22 23 24 25 26 27 28 29 30
000
FTUS43 KLBF 242320
TAFLBF
TAF
KLBF 242320Z 2500/2524 02008KT P6SM -SHRA BKN015 OVC025
     FM250300 01009KT 6SM -SHRA OVC008
     FM251200 01010KT P6SM OVC008
     FM251300 01009KT P6SM OVC003
     FM251600 01010KT P6SM OVC008=

USA.gov is the U.S. government's official web portal to all federal, state and local government web resources and services.